sensor_id;sensor_type;location;lat;lon;timestamp;P1;durP1;ratioP1;P2;durP2;ratioP2
34521;SDS011;25561;48.888;8.736;2023-03-01T06:50:00;60.05;;;25.48;;
34521;SDS011;25561;48.888;8.736;2023-03-01T06:53:02;62.53;;;25.65;;
34521;SDS011;25561;48.888;8.736;2023-03-01T06:56:05;68.63;;;26.67;;
34521;SDS011;25561;48.888;8.736;2023-03-01T06:59:07;64.45;;;26.35;;
34521;SDS011;25561;48.888;8.736;2023-03-01T07:02:10;64.30;;;26.88;;
34521;SDS011;25561;48.888;8.736;2023-03-01T07:05:13;62.10;;;25.77;;
34521;SDS011;25561;48.888;8.736;2023-03-01T07:08:16;69.22;;;26.50;;
34521;SDS011;25561;48.888;8.736;2023-03-01T07:11:19;62.83;;;25.65;;
34521;SDS011;25561;48.888;8.736;2023-03-01T07:14:22;61.30;;;25.48;;
34521;SDS011;25561;48.888;8.736;2023-03-01T07:17:29;50.83;;;23.60;;
34521;SDS011;25561;48.888;8.736;2023-03-01T07:20:34;54.15;;;24.35;;
34521;SDS011;25561;48.888;8.736;2023-03-01T07:23:39;54.00;;;21.85;;
34521;SDS011;25561;48.888;8.736;2023-03-01T07:26:43;47.50;;;23.50;;
34521;SDS011;25561;48.888;8.736;2023-03-01T07:29:46;46.30;;;21.13;;
34521;SDS011;25561;48.888;8.736;2023-03-01T07:32:48;43.20;;;22.15;;
34521;SDS011;25561;48.888;8.736;2023-03-01T07:35:55;46.53;;;20.90;;
34521;SDS011;25561;48.888;8.736;2023-03-01T07:39:01;42.67;;;22.08;;
34521;SDS011;25561;48.888;8.736;2023-03-01T07:42:04;52.20;;;21.80;;
34521;SDS011;25561;48.888;8.736;2023-03-01T07:45:06;57.35;;;23.70;;
34521;SDS011;25561;48.888;8.736;2023-03-01T07:48:08;47.50;;;20.80;;
34521;SDS011;25561;48.888;8.736;2023-03-01T07:51:10;48.88;;;21.85;;
34521;SDS011;25561;48.888;8.736;2023-03-01T07:54:13;45.30;;;22.13;;
34521;SDS011;25561;48.888;8.736;2023-03-01T07:57:15;46.47;;;23.33;;
34521;SDS011;25561;48.888;8.736;2023-03-01T08:00:17;46.90;;;22.13;;
34521;SDS011;25561;48.888;8.736;2023-03-01T08:03:19;44.38;;;21.38;;
34521;SDS011;25561;48.888;8.736;2023-03-01T08:06:21;52.58;;;21.15;;
34521;SDS011;25561;48.888;8.736;2023-03-01T08:09:23;46.33;;;22.42;;
34521;SDS011;25561;48.888;8.736;2023-03-01T08:12:26;43.75;;;20.88;;
34521;SDS011;25561;48.888;8.736;2023-03-01T08:15:30;47.00;;;22.80;;
34521;SDS011;25561;48.888;8.736;2023-03-01T08:18:32;48.85;;;21.58;;
34521;SDS011;25561;48.888;8.736;2023-03-01T08:21:34;47.65;;;22.23;;
34521;SDS011;25561;48.888;8.736;2023-03-01T08:24:36;52.63;;;22.95;;
34521;SDS011;25561;48.888;8.736;2023-03-01T08:27:38;43.35;;;22.35;;
34521;SDS011;25561;48.888;8.736;2023-03-01T08:30:40;45.65;;;22.95;;
34521;SDS011;25561;48.888;8.736;2023-03-01T08:33:42;43.25;;;21.00;;
34521;SDS011;25561;48.888;8.736;2023-03-01T08:36:44;44.17;;;22.45;;
34521;SDS011;25561;48.888;8.736;2023-03-01T08:39:49;38.38;;;20.40;;
34521;SDS011;25561;48.888;8.736;2023-03-01T08:42:52;39.90;;;20.45;;
34521;SDS011;25561;48.888;8.736;2023-03-01T08:45:54;38.15;;;20.73;;
34521;SDS011;25561;48.888;8.736;2023-03-01T08:48:57;42.85;;;20.70;;
34521;SDS011;25561;48.888;8.736;2023-03-01T08:51:59;43.38;;;22.15;;
34521;SDS011;25561;48.888;8.736;2023-03-01T08:55:05;38.75;;;19.90;;
34521;SDS011;25561;48.888;8.736;2023-03-01T08:58:09;36.47;;;19.73;;
34521;SDS011;25561;48.888;8.736;2023-03-01T09:01:20;38.97;;;20.55;;
34521;SDS011;25561;48.888;8.736;2023-03-01T09:04:38;42.28;;;21.88;;
34521;SDS011;25561;48.888;8.736;2023-03-01T09:07:45;44.17;;;21.33;;
34521;SDS011;25561;48.888;8.736;2023-03-01T09:42:36;41.78;;;23.15;;
34521;SDS011;25561;48.888;8.736;2023-03-01T09:46:03;40.33;;;20.48;;
34521;SDS011;25561;48.888;8.736;2023-03-01T09:49:16;37.83;;;21.48;;
34521;SDS011;25561;48.888;8.736;2023-03-01T09:52:29;42.17;;;22.25;;
34521;SDS011;25561;48.888;8.736;2023-03-01T09:55:51;42.15;;;22.83;;
34521;SDS011;25561;48.888;8.736;2023-03-01T10:02:21;39.65;;;21.83;;
34521;SDS011;25561;48.888;8.736;2023-03-01T10:08:56;40.75;;;23.13;;
34521;SDS011;25561;48.888;8.736;2023-03-01T10:12:07;43.63;;;23.30;;
34521;SDS011;25561;48.888;8.736;2023-03-01T10:15:47;43.10;;;22.05;;
34521;SDS011;25561;48.888;8.736;2023-03-01T10:18:45;35.33;;;20.73;;
34521;SDS011;25561;48.888;8.736;2023-03-01T10:21:53;43.30;;;22.45;;
34521;SDS011;25561;48.888;8.736;2023-03-01T10:24:59;44.22;;;22.10;;
34521;SDS011;25561;48.888;8.736;2023-03-01T10:32:02;40.60;;;21.33;;
34521;SDS011;25561;48.888;8.736;2023-03-01T10:34:56;45.40;;;22.10;;
34521;SDS011;25561;48.888;8.736;2023-03-01T10:38:06;43.85;;;22.58;;
34521;SDS011;25561;48.888;8.736;2023-03-01T10:41:09;39.97;;;21.77;;
34521;SDS011;25561;48.888;8.736;2023-03-01T10:44:34;41.75;;;20.92;;
34521;SDS011;25561;48.888;8.736;2023-03-01T10:47:43;44.80;;;23.35;;
34521;SDS011;25561;48.888;8.736;2023-03-01T10:50:49;42.63;;;22.27;;
34521;SDS011;25561;48.888;8.736;2023-03-01T10:57:37;39.58;;;21.42;;
34521;SDS011;25561;48.888;8.736;2023-03-01T11:00:55;41.28;;;21.55;;
34521;SDS011;25561;48.888;8.736;2023-03-01T11:07:16;44.83;;;22.23;;
34521;SDS011;25561;48.888;8.736;2023-03-01T11:13:36;39.33;;;22.58;;
34521;SDS011;25561;48.888;8.736;2023-03-01T11:17:02;37.28;;;19.80;;
34521;SDS011;25561;48.888;8.736;2023-03-01T11:23:14;38.75;;;21.08;;
34521;SDS011;25561;48.888;8.736;2023-03-01T11:26:17;38.78;;;20.95;;
34521;SDS011;25561;48.888;8.736;2023-03-01T11:29:27;39.17;;;20.85;;
34521;SDS011;25561;48.888;8.736;2023-03-01T11:59:35;40.25;;;22.58;;
34521;SDS011;25561;48.888;8.736;2023-03-01T12:09:38;49.97;;;22.80;;
34521;SDS011;25561;48.888;8.736;2023-03-01T12:20:14;43.28;;;22.10;;
34521;SDS011;25561;48.888;8.736;2023-03-01T12:30:19;46.97;;;21.73;;
34521;SDS011;25561;48.888;8.736;2023-03-01T12:37:01;49.70;;;24.00;;
34521;SDS011;25561;48.888;8.736;2023-03-01T12:40:21;45.35;;;21.80;;
34521;SDS011;25561;48.888;8.736;2023-03-01T12:50:14;39.58;;;20.13;;
34521;SDS011;25561;48.888;8.736;2023-03-01T12:56:34;49.15;;;21.60;;
34521;SDS011;25561;48.888;8.736;2023-03-01T12:59:50;48.45;;;22.83;;
34521;SDS011;25561;48.888;8.736;2023-03-01T13:03:10;44.65;;;22.27;;
34521;SDS011;25561;48.888;8.736;2023-03-01T13:06:35;46.05;;;23.30;;
34521;SDS011;25561;48.888;8.736;2023-03-01T13:16:38;49.42;;;22.55;;
34521;SDS011;25561;48.888;8.736;2023-03-01T13:19:46;44.25;;;22.13;;
34521;SDS011;25561;48.888;8.736;2023-03-01T13:23:03;48.95;;;22.40;;
34521;SDS011;25561;48.888;8.736;2023-03-01T13:29:27;39.28;;;21.27;;
34521;SDS011;25561;48.888;8.736;2023-03-01T13:35:46;45.00;;;23.88;;
34521;SDS011;25561;48.888;8.736;2023-03-01T13:41:58;46.65;;;23.15;;
34521;SDS011;25561;48.888;8.736;2023-03-01T13:45:01;43.92;;;21.25;;
34521;SDS011;25561;48.888;8.736;2023-03-01T13:48:15;40.08;;;21.00;;
34521;SDS011;25561;48.888;8.736;2023-03-01T13:51:23;40.25;;;21.20;;
34521;SDS011;25561;48.888;8.736;2023-03-01T13:54:29;42.38;;;22.05;;
34521;SDS011;25561;48.888;8.736;2023-03-01T13:57:34;39.83;;;21.88;;
34521;SDS011;25561;48.888;8.736;2023-03-01T14:00:38;46.42;;;22.10;;
34521;SDS011;25561;48.888;8.736;2023-03-01T14:03:41;44.58;;;24.00;;
34521;SDS011;25561;48.888;8.736;2023-03-01T14:06:43;43.15;;;21.08;;
34521;SDS011;25561;48.888;8.736;2023-03-01T14:09:47;45.20;;;21.45;;
34521;SDS011;25561;48.888;8.736;2023-03-01T14:13:07;43.88;;;23.45;;
34521;SDS011;25561;48.888;8.736;2023-03-01T14:16:27;41.65;;;22.65;;
34521;SDS011;25561;48.888;8.736;2023-03-01T14:19:47;43.42;;;22.98;;
34521;SDS011;25561;48.888;8.736;2023-03-01T14:22:56;45.03;;;22.83;;
34521;SDS011;25561;48.888;8.736;2023-03-01T14:29:02;49.92;;;22.60;;
34521;SDS011;25561;48.888;8.736;2023-03-01T14:35:35;39.53;;;22.02;;
34521;SDS011;25561;48.888;8.736;2023-03-01T14:38:39;43.92;;;20.92;;
34521;SDS011;25561;48.888;8.736;2023-03-01T14:41:42;44.13;;;21.27;;
34521;SDS011;25561;48.888;8.736;2023-03-01T14:44:45;43.30;;;23.00;;
34521;SDS011;25561;48.888;8.736;2023-03-01T14:47:50;47.03;;;20.83;;
34521;SDS011;25561;48.888;8.736;2023-03-01T14:50:52;42.78;;;20.52;;
34521;SDS011;25561;48.888;8.736;2023-03-01T14:53:54;43.70;;;21.55;;
34521;SDS011;25561;48.888;8.736;2023-03-01T14:57:01;40.10;;;20.70;;
34521;SDS011;25561;48.888;8.736;2023-03-01T15:00:03;44.28;;;20.58;;
34521;SDS011;25561;48.888;8.736;2023-03-01T15:03:13;45.33;;;20.63;;
34521;SDS011;25561;48.888;8.736;2023-03-01T15:06:21;41.80;;;19.35;;
34521;SDS011;25561;48.888;8.736;2023-03-01T15:09:23;39.28;;;21.35;;
34521;SDS011;25561;48.888;8.736;2023-03-01T15:15:35;41.10;;;19.40;;
34521;SDS011;25561;48.888;8.736;2023-03-01T15:18:43;39.83;;;20.33;;
34521;SDS011;25561;48.888;8.736;2023-03-01T15:21:51;44.55;;;22.10;;
34521;SDS011;25561;48.888;8.736;2023-03-01T15:24:53;39.97;;;19.83;;
34521;SDS011;25561;48.888;8.736;2023-03-01T15:27:56;42.70;;;21.23;;
34521;SDS011;25561;48.888;8.736;2023-03-01T15:34:24;40.40;;;20.48;;
34521;SDS011;25561;48.888;8.736;2023-03-01T15:40:35;36.90;;;20.08;;
34521;SDS011;25561;48.888;8.736;2023-03-01T15:43:49;40.67;;;19.55;;
34521;SDS011;25561;48.888;8.736;2023-03-01T15:46:51;43.70;;;20.42;;
34521;SDS011;25561;48.888;8.736;2023-03-01T15:49:54;38.72;;;21.33;;
34521;SDS011;25561;48.888;8.736;2023-03-01T15:52:57;39.35;;;19.52;;
34521;SDS011;25561;48.888;8.736;2023-03-01T15:56:00;38.05;;;20.55;;
34521;SDS011;25561;48.888;8.736;2023-03-01T15:59:02;41.33;;;20.15;;
34521;SDS011;25561;48.888;8.736;2023-03-01T16:02:09;39.85;;;21.85;;
34521;SDS011;25561;48.888;8.736;2023-03-01T16:05:16;43.85;;;20.83;;
34521;SDS011;25561;48.888;8.736;2023-03-01T16:08:21;37.47;;;19.52;;
34521;SDS011;25561;48.888;8.736;2023-03-01T16:11:23;44.38;;;19.35;;
34521;SDS011;25561;48.888;8.736;2023-03-01T16:14:25;48.53;;;21.67;;
34521;SDS011;25561;48.888;8.736;2023-03-01T16:17:27;40.75;;;19.98;;
34521;SDS011;25561;48.888;8.736;2023-03-01T16:20:29;42.42;;;20.17;;
34521;SDS011;25561;48.888;8.736;2023-03-01T16:26:36;42.70;;;20.67;;
34521;SDS011;25561;48.888;8.736;2023-03-01T16:29:38;45.28;;;21.27;;
34521;SDS011;25561;48.888;8.736;2023-03-01T16:32:40;42.90;;;20.42;;
34521;SDS011;25561;48.888;8.736;2023-03-01T16:35:43;42.78;;;20.10;;
34521;SDS011;25561;48.888;8.736;2023-03-01T16:38:45;39.05;;;20.17;;
34521;SDS011;25561;48.888;8.736;2023-03-01T16:41:47;44.90;;;21.25;;
34521;SDS011;25561;48.888;8.736;2023-03-01T16:44:53;40.50;;;20.17;;
34521;SDS011;25561;48.888;8.736;2023-03-01T16:47:58;43.92;;;20.00;;
34521;SDS011;25561;48.888;8.736;2023-03-01T16:51:00;41.42;;;20.42;;
34521;SDS011;25561;48.888;8.736;2023-03-01T16:54:03;39.83;;;20.85;;
34521;SDS011;25561;48.888;8.736;2023-03-01T16:57:05;40.05;;;20.65;;
